Terminal Aerodrome Forecast
Issued by NWS

Home | Current Version | Previous Version | Graphics & Text | Print | Product List | Glossary On
Versions: 1 2 3 4 5 6 7 8 9 10 11 12 13 14 15 16 17 18 19 20 21 22 23 24 25 26 27 28 29
000
FTUS43 KABR 282100 AAB
TAFMBG
TAF AMD
KMBG 282153Z 2822/2918 VRB04KT P6SM -RA BKN011 OVC035
     FM290700 VRB05KT 4SM BR SCT250
     FM291300 VRB05KT P6SM SKC=

USA.gov is the U.S. government's official web portal to all federal, state and local government web resources and services.